createdAt,value
2022-12-15T00:01:49.588Z,16.75
2022-12-15T00:04:34.585Z,17.98
2022-12-15T00:07:19.806Z,11.95
2022-12-15T00:10:04.690Z,9.48
2022-12-15T00:12:50.104Z,8.93
2022-12-15T00:15:35.489Z,7.85
2022-12-15T00:18:24.939Z,8.90
2022-12-15T00:21:10.304Z,18.42
2022-12-15T00:23:55.009Z,14.10
2022-12-15T00:26:39.849Z,10.50
2022-12-15T00:29:25.347Z,19.42
2022-12-15T00:32:10.155Z,17.67
2022-12-15T00:34:55.049Z,19.50
2022-12-15T00:37:39.886Z,20.27
2022-12-15T00:40:06.968Z,14.15
2022-12-15T00:42:33.495Z,20.00
2022-12-15T00:44:59.952Z,11.57
2022-12-15T00:47:26.499Z,9.82
2022-12-15T00:50:11.294Z,8.90
2022-12-15T00:52:56.712Z,8.65
2022-12-15T00:55:41.581Z,8.30
2022-12-15T00:58:26.576Z,10.82
2022-12-15T01:01:11.463Z,8.65
2022-12-15T01:03:56.552Z,9.15
2022-12-15T01:06:42.200Z,9.00
2022-12-15T01:09:29.169Z,8.68
2022-12-15T01:12:14.119Z,19.15
2022-12-15T01:14:59.424Z,21.77
2022-12-15T01:17:44.930Z,21.38
2022-12-15T01:20:32.752Z,20.95
2022-12-15T01:22:59.527Z,20.88
2022-12-15T01:25:27.537Z,18.92
2022-12-15T01:27:54.282Z,15.65
2022-12-15T01:30:24.402Z,20.30
2022-12-15T01:32:51.972Z,19.65
2022-12-15T01:35:19.055Z,20.38
2022-12-15T01:37:46.255Z,17.58
2022-12-15T01:40:45.708Z,12.75
2022-12-15T01:43:27.538Z,19.05
2022-12-15T01:45:56.531Z,19.13
2022-12-15T01:48:28.246Z,20.80
2022-12-15T01:51:01.406Z,19.95
2022-12-15T01:53:30.641Z,19.63
2022-12-15T01:55:57.647Z,21.02
2022-12-15T01:58:24.170Z,16.33
2022-12-15T02:00:50.643Z,12.02
2022-12-15T02:03:18.659Z,22.77
2022-12-15T02:05:46.964Z,22.75
2022-12-15T02:08:13.770Z,21.42
2022-12-15T02:11:15.330Z,19.77
2022-12-15T02:13:57.126Z,22.10
2022-12-15T02:16:36.343Z,21.15
2022-12-15T02:19:05.597Z,19.98
2022-12-15T02:22:02.570Z,21.77
2022-12-15T02:25:10.358Z,21.85
2022-12-15T02:27:59.210Z,22.25
2022-12-15T02:30:35.422Z,22.10
2022-12-15T02:33:23.966Z,22.27
2022-12-15T02:36:01.827Z,20.25
2022-12-15T02:38:37.659Z,21.77
2022-12-15T02:41:06.326Z,21.30
2022-12-15T02:43:37.029Z,21.90
2022-12-15T02:46:14.630Z,22.75
2022-12-15T02:49:28.164Z,21.05
2022-12-15T02:52:32.231Z,20.95
2022-12-15T02:55:13.328Z,22.33
2022-12-15T02:57:59.427Z,21.02
2022-12-15T03:00:28.270Z,20.85
2022-12-15T03:02:55.895Z,20.23
2022-12-15T03:05:24.887Z,21.45
2022-12-15T03:07:54.159Z,22.02
2022-12-15T03:10:23.568Z,20.85
2022-12-15T03:12:52.804Z,21.65
2022-12-15T03:15:19.421Z,20.98
2022-12-15T03:17:46.071Z,20.30
2022-12-15T03:20:12.652Z,16.38
2022-12-15T03:22:39.457Z,11.52
2022-12-15T03:25:06.177Z,10.93
2022-12-15T03:27:32.708Z,10.68
2022-12-15T03:29:59.125Z,8.98
2022-12-15T03:32:25.627Z,9.48
2022-12-15T03:34:52.074Z,9.75
2022-12-15T03:37:18.506Z,9.45
2022-12-15T03:39:44.949Z,10.98
2022-12-15T03:42:11.387Z,12.63
2022-12-15T03:44:37.890Z,12.85
2022-12-15T03:47:04.436Z,11.35
2022-12-15T03:49:30.843Z,18.95
2022-12-15T03:51:57.340Z,14.52
2022-12-15T03:54:23.776Z,12.77
2022-12-15T03:56:50.270Z,11.25
2022-12-15T03:59:16.799Z,14.05
2022-12-15T04:01:49.203Z,12.63
2022-12-15T04:04:15.973Z,10.48
2022-12-15T04:06:42.411Z,10.70
2022-12-15T04:09:09.009Z,10.15
2022-12-15T04:11:35.819Z,9.73
2022-12-15T04:14:02.326Z,10.57
2022-12-15T04:16:29.537Z,9.05
2022-12-15T04:19:14.708Z,18.73
2022-12-15T04:21:41.163Z,11.63
2022-12-15T04:24:26.339Z,14.75
2022-12-15T04:27:11.355Z,14.68
2022-12-15T04:29:56.215Z,13.98
2022-12-15T04:32:42.233Z,13.05
2022-12-15T04:35:28.056Z,9.52
2022-12-15T04:38:13.792Z,8.82
2022-12-15T04:40:59.258Z,8.63
2022-12-15T04:43:44.577Z,7.90
2022-12-15T04:46:29.689Z,8.55
2022-12-15T04:49:14.934Z,9.75
2022-12-15T04:52:00.091Z,9.50
2022-12-15T04:54:45.049Z,10.90
2022-12-15T04:57:29.838Z,8.27
2022-12-15T05:00:14.732Z,8.70
2022-12-15T05:02:59.494Z,9.63
2022-12-15T05:05:44.377Z,10.05
2022-12-15T05:08:29.237Z,7.65
2022-12-15T05:11:14.112Z,12.77
2022-12-15T05:13:58.938Z,17.60
2022-12-15T05:16:43.809Z,12.70
2022-12-15T05:19:28.973Z,10.38
2022-12-15T05:22:14.379Z,11.05
2022-12-15T05:24:59.207Z,9.40
2022-12-15T05:27:44.077Z,12.32
2022-12-15T05:30:29.363Z,9.75
2022-12-15T05:32:55.831Z,10.88
2022-12-15T05:35:22.278Z,12.15
2022-12-15T05:37:48.777Z,12.23
2022-12-15T05:40:15.323Z,12.05
2022-12-15T05:42:41.740Z,10.45
2022-12-15T05:45:10.098Z,9.43
2022-12-15T05:47:36.606Z,10.88
2022-12-15T05:50:03.786Z,13.68
2022-12-15T05:52:30.338Z,13.65
2022-12-15T05:54:56.781Z,10.15
2022-12-15T05:57:23.269Z,8.55
2022-12-15T05:59:49.714Z,9.65
2022-12-15T06:02:16.224Z,12.00
2022-12-15T06:04:42.811Z,12.93
2022-12-15T06:07:09.325Z,12.18
2022-12-15T06:09:35.761Z,13.15
2022-12-15T06:12:02.250Z,9.55
2022-12-15T06:14:28.707Z,10.38
2022-12-15T06:16:55.868Z,9.95
2022-12-15T06:19:22.508Z,9.25
2022-12-15T06:21:49.042Z,8.73
2022-12-15T06:24:15.600Z,8.95
2022-12-15T06:26:42.118Z,7.68
2022-12-15T06:29:11.306Z,11.70
2022-12-15T06:31:39.019Z,8.40
2022-12-15T06:34:08.295Z,16.10
2022-12-15T06:36:35.262Z,15.00
2022-12-15T06:39:04.273Z,11.00
2022-12-15T06:41:31.444Z,11.65
2022-12-15T06:43:58.947Z,9.25
2022-12-15T06:46:27.963Z,8.70
2022-12-15T06:48:54.573Z,10.55
2022-12-15T06:51:22.312Z,10.20
2022-12-15T06:53:49.178Z,12.85
2022-12-15T06:56:33.073Z,15.80
2022-12-15T06:59:01.784Z,10.55
2022-12-15T07:01:28.927Z,13.15
2022-12-15T07:03:55.812Z,19.83
2022-12-15T07:06:23.070Z,15.63
2022-12-15T07:08:52.481Z,11.63
2022-12-15T07:11:21.049Z,9.57
2022-12-15T07:13:53.048Z,10.93
2022-12-15T07:16:21.467Z,10.23
2022-12-15T07:18:48.354Z,9.02
2022-12-15T07:21:15.068Z,8.05
2022-12-15T07:23:57.828Z,12.13
2022-12-15T07:26:25.125Z,8.77
2022-12-15T07:28:53.401Z,9.68
2022-12-15T07:31:20.695Z,10.40
2022-12-15T07:33:48.337Z,11.82
2022-12-15T07:36:15.423Z,11.15
2022-12-15T07:38:41.914Z,9.48
2022-12-15T07:41:09.860Z,10.63
2022-12-15T07:43:37.455Z,11.52
2022-12-15T07:46:05.216Z,9.40
2022-12-15T07:48:32.898Z,8.88
2022-12-15T07:51:08.424Z,9.25
2022-12-15T07:53:37.829Z,8.75
2022-12-15T07:56:08.462Z,7.85
2022-12-15T07:58:36.285Z,10.05
2022-12-15T08:01:05.288Z,10.65
2022-12-15T08:03:32.576Z,12.48
2022-12-15T08:06:04.421Z,11.02
2022-12-15T08:08:32.212Z,14.48
2022-12-15T08:10:58.924Z,11.15
2022-12-15T08:14:00.888Z,12.65
2022-12-15T08:16:12.782Z,9.30
2022-12-15T08:18:39.664Z,10.20
2022-12-15T08:21:08.330Z,10.45
2022-12-15T08:23:35.972Z,10.48
2022-12-15T08:26:07.968Z,14.25
2022-12-15T08:28:35.559Z,10.43
2022-12-15T08:31:07.731Z,9.07
2022-12-15T08:33:34.828Z,17.30
2022-12-15T08:36:03.956Z,13.13
2022-12-15T08:38:31.677Z,16.13
2022-12-15T08:40:58.774Z,19.35
2022-12-15T08:43:25.222Z,21.75
2022-12-15T08:45:51.824Z,21.63
2022-12-15T08:48:18.540Z,20.75
2022-12-15T08:50:45.774Z,16.85
2022-12-15T08:56:06.913Z,19.42
2022-12-15T08:58:34.192Z,21.73
2022-12-15T09:01:17.460Z,21.27
2022-12-15T09:03:50.338Z,26.23
2022-12-15T09:06:20.764Z,24.75
2022-12-15T09:08:50.134Z,23.27
2022-12-15T09:11:17.754Z,22.55
2022-12-15T09:13:44.501Z,22.75
2022-12-15T09:16:14.769Z,21.55
2022-12-15T09:18:46.648Z,20.02
2022-12-15T09:21:15.365Z,24.77
2022-12-15T09:23:42.563Z,26.88
2022-12-15T09:26:14.354Z,26.10
2022-12-15T09:28:42.818Z,26.77
2022-12-15T09:31:21.922Z,28.98
2022-12-15T09:33:51.082Z,27.10
2022-12-15T09:36:17.551Z,26.63
2022-12-15T09:38:44.776Z,28.40
2022-12-15T09:41:14.959Z,26.48
2022-12-15T09:43:58.563Z,27.55
2022-12-15T09:46:37.474Z,29.65
2022-12-15T09:49:29.189Z,33.55
2022-12-15T09:52:17.963Z,29.30
2022-12-15T09:54:46.175Z,27.55
2022-12-15T09:57:35.665Z,28.13
2022-12-15T10:00:14.500Z,24.83
2022-12-15T10:03:08.423Z,27.70
2022-12-15T10:06:18.102Z,29.52
2022-12-15T10:08:55.926Z,28.73
2022-12-15T10:11:43.864Z,31.75
2022-12-15T10:14:35.162Z,29.60
2022-12-15T10:17:13.960Z,27.35
2022-12-15T10:19:49.976Z,32.70
2022-12-15T10:22:23.811Z,34.28
2022-12-15T10:28:18.311Z,31.05
2022-12-15T10:31:07.983Z,31.08
2022-12-15T10:36:32.079Z,29.65
2022-12-15T10:38:58.584Z,32.08
2022-12-15T10:41:28.408Z,26.05
2022-12-15T10:43:55.034Z,34.03
2022-12-15T10:46:27.079Z,28.70
2022-12-15T10:48:59.923Z,32.55
2022-12-15T10:51:51.027Z,29.25
2022-12-15T10:54:18.822Z,30.90
2022-12-15T10:57:16.663Z,27.90
2022-12-15T10:59:43.442Z,29.15
2022-12-15T11:02:37.066Z,26.75
2022-12-15T11:05:15.609Z,27.67
2022-12-15T11:07:44.240Z,24.92
2022-12-15T11:10:20.004Z,25.75
2022-12-15T11:13:16.123Z,29.17
2022-12-15T11:18:53.431Z,26.92
2022-12-15T11:21:26.482Z,31.90
2022-12-15T11:24:01.705Z,31.45
2022-12-15T11:26:50.121Z,32.47
2022-12-15T11:29:23.339Z,28.38
2022-12-15T11:31:51.716Z,42.95
2022-12-15T11:34:21.587Z,33.97
2022-12-15T11:37:00.054Z,31.30
2022-12-15T11:39:56.873Z,28.02
2022-12-15T11:42:42.286Z,26.88
2022-12-15T11:45:23.726Z,29.17
2022-12-15T11:47:58.535Z,29.52
2022-12-15T11:50:42.650Z,30.50
2022-12-15T11:53:30.893Z,30.52
2022-12-15T11:56:09.955Z,25.10
2022-12-15T11:59:04.790Z,30.05
2022-12-15T12:02:03.192Z,26.13
2022-12-15T12:04:52.056Z,25.98
2022-12-15T12:07:41.688Z,27.38
2022-12-15T12:11:03.075Z,27.50
2022-12-15T12:13:42.444Z,28.33
2022-12-15T12:16:31.986Z,27.73
2022-12-15T12:19:10.183Z,25.65
2022-12-15T12:21:51.124Z,27.25
2022-12-15T12:24:29.968Z,27.27
2022-12-15T12:26:59.087Z,29.65
2022-12-15T12:29:37.943Z,28.58
2022-12-15T12:32:17.045Z,28.83
2022-12-15T12:35:32.363Z,29.05
2022-12-15T12:37:56.873Z,27.20
2022-12-15T12:40:47.819Z,25.90
2022-12-15T12:43:41.389Z,30.17
2022-12-15T12:46:22.691Z,29.10
2022-12-15T12:48:56.200Z,29.45
2022-12-15T12:51:37.883Z,30.33
2022-12-15T12:54:36.626Z,28.30
2022-12-15T12:57:12.313Z,45.08
2022-12-15T13:00:14.286Z,32.95
2022-12-15T13:02:47.757Z,32.28
2022-12-15T13:05:28.494Z,32.53
2022-12-15T13:07:56.938Z,34.05
2022-12-15T13:10:25.227Z,30.52
2022-12-15T13:12:59.707Z,31.42
2022-12-15T13:15:39.618Z,34.33
2022-12-15T13:18:16.775Z,28.58
2022-12-15T13:20:45.158Z,34.50
2022-12-15T13:23:21.753Z,35.30
2022-12-15T13:25:56.964Z,31.90
2022-12-15T13:28:40.510Z,32.03
2022-12-15T13:31:16.559Z,31.92
2022-12-15T13:34:12.340Z,32.58
2022-12-15T13:36:41.779Z,31.60
2022-12-15T13:39:11.393Z,38.45
2022-12-15T13:42:15.327Z,40.47
2022-12-15T13:44:41.281Z,35.50
2022-12-15T13:47:12.461Z,35.65
2022-12-15T13:53:08.727Z,32.38
2022-12-15T13:55:28.289Z,34.10
2022-12-15T13:58:00.294Z,32.25
2022-12-15T14:00:26.822Z,34.75
2022-12-15T14:03:07.562Z,34.92
2022-12-15T14:05:34.393Z,37.08
2022-12-15T14:08:03.447Z,46.78
2022-12-15T14:10:41.774Z,38.20
2022-12-15T14:13:20.319Z,41.50
2022-12-15T14:15:55.864Z,33.38
2022-12-15T14:21:20.128Z,25.60
2022-12-15T14:24:11.476Z,35.97
2022-12-15T14:26:33.316Z,31.35
2022-12-15T14:29:03.337Z,30.75
2022-12-15T14:31:30.903Z,34.65
2022-12-15T14:34:06.288Z,29.75
2022-12-15T14:36:33.192Z,33.03
2022-12-15T14:39:01.441Z,29.52
2022-12-15T14:41:31.736Z,31.38
2022-12-15T14:44:31.797Z,31.30
2022-12-15T14:47:05.825Z,31.05
2022-12-15T14:49:43.565Z,30.00
2022-12-15T14:52:23.191Z,30.08
2022-12-15T14:54:53.311Z,31.85
2022-12-15T14:57:37.987Z,31.38
2022-12-15T15:00:26.116Z,29.35
2022-12-15T15:03:04.701Z,26.33
2022-12-15T15:03:12.192Z,30.48
2022-12-15T15:03:17.231Z,25.38
2022-12-15T15:05:47.522Z,28.17
2022-12-15T15:08:19.317Z,23.20
2022-12-15T15:10:45.926Z,22.77
2022-12-15T15:13:19.119Z,31.70
2022-12-15T15:15:53.362Z,31.27
2022-12-15T15:18:26.363Z,30.17
2022-12-15T15:21:00.302Z,32.63
2022-12-15T15:23:26.811Z,27.30
2022-12-15T15:26:05.847Z,28.85
2022-12-15T15:28:41.309Z,28.48
2022-12-15T15:31:40.814Z,22.70
2022-12-15T15:34:08.542Z,24.02
2022-12-15T15:36:37.856Z,29.00
2022-12-15T15:39:12.070Z,28.50
2022-12-15T15:41:38.642Z,21.65
2022-12-15T15:44:12.666Z,19.50
2022-12-15T15:46:52.435Z,16.73
2022-12-15T15:49:21.677Z,29.77
2022-12-15T15:51:48.989Z,20.80
2022-12-15T15:54:19.078Z,18.25
2022-12-15T15:56:45.576Z,18.48
2022-12-15T15:59:16.812Z,19.08
2022-12-15T16:04:10.766Z,15.55
2022-12-15T16:06:40.836Z,14.35
2022-12-15T16:09:14.709Z,22.23
2022-12-15T16:11:41.206Z,29.98
2022-12-15T16:14:15.418Z,29.85
2022-12-15T16:16:42.052Z,27.60
2022-12-15T16:19:09.161Z,18.70
2022-12-15T16:21:36.172Z,16.98
2022-12-15T16:24:09.983Z,15.88
2022-12-15T16:26:38.886Z,16.17
2022-12-15T16:29:15.326Z,17.23
2022-12-15T16:31:45.431Z,15.13
2022-12-15T16:34:19.421Z,18.75
2022-12-15T16:36:46.184Z,16.63
2022-12-15T16:39:20.732Z,17.33
2022-12-15T16:41:47.173Z,17.58
2022-12-15T16:44:14.215Z,14.45
2022-12-15T16:46:40.766Z,16.80
2022-12-15T16:49:07.280Z,16.20
2022-12-15T16:51:38.832Z,15.75
2022-12-15T16:54:06.023Z,16.60
2022-12-15T16:56:33.033Z,16.20
2022-12-15T16:59:30.851Z,18.05
2022-12-15T17:01:46.130Z,15.15
2022-12-15T17:04:12.761Z,14.02
2022-12-15T17:06:39.426Z,19.80
2022-12-15T17:09:08.836Z,21.83
2022-12-15T17:11:35.567Z,24.45
2022-12-15T17:14:02.046Z,27.27
2022-12-15T17:16:29.675Z,26.10
2022-12-15T17:18:56.244Z,22.90
2022-12-15T17:21:29.706Z,21.52
2022-12-15T17:23:59.714Z,20.95
2022-12-15T17:26:32.045Z,19.80
2022-12-15T17:29:01.563Z,20.50
2022-12-15T17:31:34.776Z,18.00
2022-12-15T17:34:22.291Z,17.88
2022-12-15T17:36:49.136Z,18.70
2022-12-15T17:39:19.191Z,25.83
2022-12-15T17:42:02.317Z,21.05
2022-12-15T17:44:34.376Z,21.75
2022-12-15T17:47:03.852Z,17.98
2022-12-15T17:49:35.628Z,20.98
2022-12-15T17:52:07.352Z,18.67
2022-12-15T17:54:34.043Z,19.23
2022-12-15T17:57:00.497Z,16.83
2022-12-15T17:59:27.142Z,16.92
2022-12-15T18:01:57.080Z,18.52
2022-12-15T18:04:23.950Z,17.58
2022-12-15T18:06:52.009Z,18.20
2022-12-15T18:09:22.345Z,17.92
2022-12-15T18:11:49.616Z,18.60
2022-12-15T18:14:18.466Z,16.80
2022-12-15T18:16:46.180Z,19.20
2022-12-15T18:19:13.314Z,18.05
2022-12-15T18:21:45.713Z,18.90
2022-12-15T18:24:13.784Z,23.70
2022-12-15T18:26:40.443Z,25.70
2022-12-15T18:29:13.220Z,19.30
2022-12-15T18:31:40.816Z,19.58
2022-12-15T18:34:12.821Z,18.52
2022-12-15T18:36:40.016Z,24.00
2022-12-15T18:39:18.640Z,19.63
2022-12-15T18:41:45.658Z,18.55
2022-12-15T18:44:23.491Z,19.42
2022-12-15T18:46:50.080Z,25.33
2022-12-15T18:49:17.836Z,28.75
2022-12-15T18:51:45.411Z,21.85
2022-12-15T18:54:18.118Z,22.48
2022-12-15T18:56:44.988Z,28.92
2022-12-15T18:59:16.695Z,21.13
2022-12-15T19:01:45.922Z,23.23
2022-12-15T19:04:13.453Z,24.70
2022-12-15T19:06:40.885Z,19.48
2022-12-15T19:09:27.699Z,15.98
2022-12-15T19:12:17.100Z,16.40
2022-12-15T19:14:45.364Z,13.07
2022-12-15T19:17:33.764Z,16.73
2022-12-15T19:20:20.218Z,21.10
2022-12-15T19:22:48.495Z,24.05
2022-12-15T19:25:26.098Z,21.67
2022-12-15T19:30:27.693Z,15.82
2022-12-15T19:32:54.293Z,17.13
2022-12-15T19:35:21.485Z,16.45
2022-12-15T19:37:49.893Z,23.45
2022-12-15T19:40:22.792Z,23.02
2022-12-15T19:42:50.231Z,21.77
2022-12-15T19:45:19.210Z,16.60
2022-12-15T19:47:45.688Z,16.25
2022-12-15T19:50:21.011Z,31.63
2022-12-15T19:52:50.839Z,21.55
2022-12-15T19:55:20.827Z,19.58
2022-12-15T19:57:47.276Z,22.05
2022-12-15T20:00:15.599Z,18.25
2022-12-15T20:02:42.411Z,17.20
2022-12-15T20:05:09.078Z,19.48
2022-12-15T20:07:35.668Z,19.30
2022-12-15T20:10:05.287Z,30.77
2022-12-15T20:12:31.806Z,17.45
2022-12-15T20:14:58.249Z,17.20
2022-12-15T20:17:24.825Z,18.02
2022-12-15T20:19:51.286Z,15.93
2022-12-15T20:22:19.395Z,19.48
2022-12-15T20:24:46.976Z,16.75
2022-12-15T20:27:15.677Z,18.65
2022-12-15T20:29:42.689Z,21.73
2022-12-15T20:32:18.548Z,19.60
2022-12-15T20:34:45.542Z,16.52
2022-12-15T20:37:25.548Z,17.25
2022-12-15T20:39:57.131Z,16.63
2022-12-15T20:42:24.663Z,16.63
2022-12-15T20:44:51.513Z,17.05
2022-12-15T20:47:26.050Z,18.65
2022-12-15T20:49:54.283Z,15.55
2022-12-15T20:52:23.717Z,17.35
2022-12-15T20:54:51.076Z,15.20
2022-12-15T20:57:17.805Z,18.02
2022-12-15T20:59:44.758Z,18.17
2022-12-15T21:02:19.424Z,17.30
2022-12-15T21:04:46.461Z,15.93
2022-12-15T21:07:13.282Z,20.40
2022-12-15T21:09:40.050Z,18.83
2022-12-15T21:12:27.530Z,21.25
2022-12-15T21:14:54.852Z,17.00
2022-12-15T21:17:25.731Z,17.75
2022-12-15T21:19:52.837Z,17.38
2022-12-15T21:22:26.436Z,16.20
2022-12-15T21:29:52.620Z,17.83
2022-12-15T21:32:20.107Z,12.40
2022-12-15T21:34:46.726Z,28.35
2022-12-15T21:37:19.124Z,34.83
2022-12-15T21:39:45.639Z,24.02
2022-12-15T21:42:15.970Z,20.70
2022-12-15T21:44:42.867Z,29.25
2022-12-15T21:47:51.876Z,17.95
2022-12-15T21:50:19.281Z,18.88
2022-12-15T21:52:47.428Z,16.90
2022-12-15T21:55:14.689Z,16.45
2022-12-15T21:57:41.197Z,17.67
2022-12-15T22:00:13.458Z,15.57
2022-12-15T22:02:40.650Z,14.88
2022-12-15T22:05:24.663Z,19.42
2022-12-15T22:10:18.480Z,15.10
2022-12-15T22:12:55.898Z,18.95
2022-12-15T22:15:26.170Z,20.15
2022-12-15T22:17:52.729Z,18.73
2022-12-15T22:20:23.153Z,15.00
2022-12-15T22:22:50.677Z,15.85
2022-12-15T22:25:20.465Z,16.98
2022-12-15T22:27:47.332Z,15.63
2022-12-15T22:30:16.318Z,15.93
2022-12-15T22:32:42.820Z,20.27
2022-12-15T22:35:27.438Z,25.58
2022-12-15T22:37:54.055Z,20.98
2022-12-15T22:40:23.300Z,15.52
2022-12-15T22:42:55.118Z,16.95
2022-12-15T22:45:23.942Z,16.80
2022-12-15T22:47:52.359Z,16.27
2022-12-15T22:50:23.400Z,18.23
2022-12-15T22:52:50.305Z,15.63
2022-12-15T22:55:20.385Z,15.13
2022-12-15T22:57:53.207Z,16.40
2022-12-15T23:00:19.645Z,21.95
2022-12-15T23:02:47.233Z,21.63
2022-12-15T23:05:15.955Z,17.30
2022-12-15T23:07:43.812Z,23.95
2022-12-15T23:10:34.681Z,23.52
2022-12-15T23:13:01.114Z,17.73
2022-12-15T23:15:47.259Z,20.67
2022-12-15T23:18:14.172Z,20.95
2022-12-15T23:20:40.742Z,20.10
2022-12-15T23:23:08.677Z,16.35
2022-12-15T23:25:35.275Z,27.80
2022-12-15T23:28:01.753Z,23.02
2022-12-15T23:30:28.168Z,20.00
2022-12-15T23:32:55.226Z,20.00
2022-12-15T23:35:22.088Z,20.33
2022-12-15T23:37:48.534Z,17.67
2022-12-15T23:40:21.144Z,19.98
2022-12-15T23:42:51.593Z,15.27
2022-12-15T23:45:18.830Z,16.98
2022-12-15T23:47:45.411Z,14.43
2022-12-15T23:50:11.918Z,15.40
2022-12-15T23:52:38.754Z,14.70
2022-12-15T23:55:07.948Z,13.60
2022-12-15T23:57:34.871Z,12.55
